Terminal Aerodrome Forecast
Issued by NWS Wilmington, NC

Home | Current Version | Previous Version | Text Only | Print | Product List | Glossary On
Versions: 1 2 3 4 5 6 7 8 9 10 11 12 13 14 15 16 17 18
000
FTUS42 KILM 280626 CCA
TAFILM
TAF COR
KILM 280626Z 2806/2906 18007KT P6SM SCT015
      TEMPO 2806/2808 BKN010
     FM280800 19007KT P6SM BKN060
      TEMPO 2810/2812 BKN010
     FM281200 21009KT P6SM SCT050
      TEMPO 2812/2813 BKN008
     FM281300 21009KT P6SM SCT250=

USA.gov is the U.S. government's official web portal to all federal, state and local government web resources and services.